createdAt,value
2018-02-08T00:02:05.350Z,101201
2018-02-08T00:04:35.173Z,101199
2018-02-08T00:07:05.439Z,101204
2018-02-08T00:09:35.300Z,101199
2018-02-08T00:12:05.557Z,101197
2018-02-08T00:14:35.468Z,101196
2018-02-08T00:17:05.346Z,101195
2018-02-08T00:19:35.198Z,101203
2018-02-08T00:22:05.068Z,101200
2018-02-08T00:24:35.326Z,101202
2018-02-08T00:27:05.236Z,101203
2018-02-08T00:29:35.490Z,101203
2018-02-08T00:32:05.349Z,101205
2018-02-08T00:34:35.651Z,101199
2018-02-08T00:37:05.503Z,101214
2018-02-08T00:39:35.451Z,101214
2018-02-08T00:42:05.338Z,101205
2018-02-08T00:44:35.250Z,101208
2018-02-08T00:47:05.472Z,101205
2018-02-08T00:49:35.357Z,101210
2018-02-08T00:52:05.278Z,101204
2018-02-08T00:54:35.138Z,101213
2018-02-08T00:57:04.991Z,101211
2018-02-08T00:59:35.231Z,101211
2018-02-08T01:02:05.084Z,101202
2018-02-08T01:04:35.391Z,101211
2018-02-08T01:07:05.239Z,101205
2018-02-08T01:09:35.441Z,101206
2018-02-08T01:12:05.300Z,101209
2018-02-08T01:14:35.552Z,101213
2018-02-08T01:17:05.372Z,101131
2018-02-08T01:19:35.247Z,101201
2018-02-08T01:22:05.085Z,100634
2018-02-08T01:24:34.988Z,101192
2018-02-08T01:27:05.434Z,101191
2018-02-08T01:29:35.294Z,101196
2018-02-08T01:32:05.636Z,101194
2018-02-08T01:34:35.508Z,101185
2018-02-08T01:37:05.393Z,101187
2018-02-08T01:39:35.236Z,101184
2018-02-08T01:42:05.196Z,101185
2018-02-08T01:44:35.620Z,101182
2018-02-08T01:47:05.470Z,101180
2018-02-08T01:49:46.523Z,101176
2018-02-08T01:52:16.367Z,101184
2018-02-08T01:54:46.659Z,101184
2018-02-08T01:57:16.528Z,101177
2018-02-08T01:59:46.389Z,101101
2018-02-08T02:02:16.333Z,101179
2018-02-08T02:04:46.209Z,101181
2018-02-08T02:07:16.441Z,101189
2018-02-08T02:09:46.286Z,101182
2018-02-08T02:12:16.591Z,101188
2018-02-08T02:14:46.540Z,101191
2018-02-08T02:17:16.401Z,101186
2018-02-08T02:19:46.250Z,101193
2018-02-08T02:22:16.119Z,101189
2018-02-08T02:24:46.364Z,101018
2018-02-08T02:27:16.218Z,101149
2018-02-08T02:29:46.479Z,101192
2018-02-08T02:32:16.374Z,101190
2018-02-08T02:34:46.614Z,101180
2018-02-08T02:37:16.439Z,101182
2018-02-08T02:39:46.446Z,101187
2018-02-08T02:42:16.311Z,101185
2018-02-08T02:44:46.148Z,101180
2018-02-08T02:47:16.701Z,101184
2018-02-08T02:49:46.560Z,101191
2018-02-08T02:52:16.941Z,101198
2018-02-08T02:54:46.824Z,101202
2018-02-08T02:57:17.062Z,101201
2018-02-08T02:59:46.947Z,101185
2018-02-08T03:02:17.319Z,101195
2018-02-08T03:04:47.184Z,101193
2018-02-08T03:07:17.430Z,101195
2018-02-08T03:09:47.284Z,101195
2018-02-08T03:12:17.573Z,101198
2018-02-08T03:14:47.452Z,101192
2018-02-08T03:17:17.410Z,101201
2018-02-08T03:19:47.261Z,101204
2018-02-08T03:22:17.151Z,101211
2018-02-08T03:24:47.352Z,101200
2018-02-08T03:27:17.228Z,101209
2018-02-08T03:29:48.026Z,101205
2018-02-08T03:32:18.026Z,101202
2018-02-08T03:34:48.223Z,101204
2018-02-08T03:37:18.128Z,101204
2018-02-08T03:39:48.404Z,101207
2018-02-08T03:42:18.293Z,101212
2018-02-08T03:44:48.701Z,101210
2018-02-08T03:47:18.577Z,101201
2018-02-08T03:49:48.488Z,101199
2018-02-08T03:52:18.361Z,101197
2018-02-08T03:54:48.243Z,101189
2018-02-08T03:57:18.418Z,101198
2018-02-08T03:59:48.319Z,101193
2018-02-08T04:02:18.588Z,101211
2018-02-08T04:04:48.450Z,101160
2018-02-08T04:07:18.321Z,101188
2018-02-08T04:09:48.245Z,101193
2018-02-08T04:12:18.092Z,101202
2018-02-08T04:14:48.329Z,101198
2018-02-08T04:17:18.194Z,101199
2018-02-08T04:19:48.416Z,101199
2018-02-08T04:22:18.268Z,101197
2018-02-08T04:24:48.565Z,101208
2018-02-08T04:27:18.425Z,101202
2018-02-08T04:29:48.333Z,101209
2018-02-08T04:32:18.198Z,101221
2018-02-08T04:34:48.044Z,101210
2018-02-08T04:37:18.341Z,101213
2018-02-08T04:40:00.064Z,101229
2018-02-08T04:45:45.209Z,101219
2018-02-08T04:48:15.537Z,101223
2018-02-08T04:50:45.393Z,101216
2018-02-08T04:53:15.582Z,100937
2018-02-08T04:55:45.432Z,101207
2018-02-08T04:58:16.267Z,101208
2018-02-08T05:00:46.444Z,101216
2018-02-08T05:03:16.293Z,101213
2018-02-08T05:05:46.660Z,101216
2018-02-08T05:08:16.500Z,101212
2018-02-08T05:10:46.360Z,101226
2018-02-08T05:13:16.206Z,101220
2018-02-08T05:15:46.045Z,101227
2018-02-08T05:18:17.185Z,101178
2018-02-08T05:20:47.062Z,101222
2018-02-08T05:23:17.398Z,101218
2018-02-08T05:25:47.258Z,101220
2018-02-08T05:28:17.540Z,101224
2018-02-08T05:30:47.383Z,101230
2018-02-08T05:33:17.238Z,101230
2018-02-08T05:35:47.106Z,101228
2018-02-08T05:38:16.955Z,101221
2018-02-08T05:40:47.140Z,101225
2018-02-08T05:43:16.971Z,101224
2018-02-08T05:45:47.238Z,101227
2018-02-08T05:48:17.147Z,101230
2018-02-08T05:50:47.361Z,101231
2018-02-08T05:53:18.009Z,101192
2018-02-08T05:55:48.225Z,101232
2018-02-08T05:58:18.052Z,101236
2018-02-08T06:00:48.344Z,101238
2018-02-08T06:03:18.196Z,101237
2018-02-08T06:05:48.483Z,101242
2018-02-08T06:08:18.379Z,101246
2018-02-08T06:10:48.566Z,101241
2018-02-08T06:13:18.387Z,101250
2018-02-08T06:15:48.246Z,101248
2018-02-08T06:18:18.097Z,101243
2018-02-08T06:20:47.969Z,101243
2018-02-08T06:23:18.189Z,101243
2018-02-08T06:25:48.145Z,101248
2018-02-08T06:28:19.166Z,101248
2018-02-08T06:30:49.046Z,101252
2018-02-08T06:33:19.379Z,101249
2018-02-08T06:35:49.223Z,101255
2018-02-08T06:38:19.506Z,101263
2018-02-08T06:40:49.363Z,101248
2018-02-08T06:43:19.552Z,101254
2018-02-08T06:45:49.468Z,101261
2018-02-08T06:48:19.334Z,101264
2018-02-08T06:50:49.184Z,101277
2018-02-08T06:53:19.094Z,101277
2018-02-08T06:55:49.314Z,101272
2018-02-08T06:58:19.394Z,101278
2018-02-08T07:00:50.264Z,101285
2018-02-08T07:03:20.397Z,101278
2018-02-08T07:05:50.296Z,101272
2018-02-08T07:08:20.824Z,101282
2018-02-08T07:10:50.754Z,101286
2018-02-08T07:13:20.606Z,101292
2018-02-08T07:15:50.501Z,101293
2018-02-08T07:18:20.338Z,101288
2018-02-08T07:20:50.217Z,101280
2018-02-08T07:23:20.121Z,101286
2018-02-08T07:25:49.957Z,101285
2018-02-08T07:28:19.858Z,101294
2018-02-08T07:30:49.731Z,101290
2018-02-08T07:33:19.973Z,101285
2018-02-08T07:35:49.821Z,101290
2018-02-08T07:38:19.691Z,101266
2018-02-08T07:40:49.552Z,101287
2018-02-08T07:43:19.886Z,101294
2018-02-08T07:45:49.741Z,101285
2018-02-08T07:48:19.628Z,101279
2018-02-08T07:50:49.505Z,101285
2018-02-08T07:53:19.385Z,101281
2018-02-08T07:55:49.503Z,101292
2018-02-08T07:58:19.381Z,101293
2018-02-08T08:00:50.395Z,101295
2018-02-08T08:03:20.304Z,101300
2018-02-08T08:05:50.688Z,101294
2018-02-08T08:08:20.630Z,101293
2018-02-08T08:10:50.528Z,101300
2018-02-08T08:13:20.810Z,101311
2018-02-08T08:15:50.745Z,101306
2018-02-08T08:18:20.620Z,101305
2018-02-08T08:20:50.517Z,101310
2018-02-08T08:23:20.506Z,101306
2018-02-08T08:25:50.362Z,101302
2018-02-08T08:28:20.220Z,101320
2018-02-08T08:30:50.262Z,101316
2018-02-08T08:33:20.337Z,101321
2018-02-08T08:35:51.036Z,101328
2018-02-08T08:38:20.894Z,101335
2018-02-08T08:40:50.804Z,101324
2018-02-08T08:43:21.026Z,101324
2018-02-08T08:45:50.912Z,101328
2018-02-08T08:48:21.088Z,101324
2018-02-08T08:50:50.933Z,101336
2018-02-08T08:53:20.894Z,101333
2018-02-08T08:55:50.737Z,101328
2018-02-08T08:58:20.601Z,101330
2018-02-08T09:00:50.485Z,101332
2018-02-08T09:03:20.342Z,101336
2018-02-08T09:05:50.237Z,101328
2018-02-08T09:08:20.104Z,101332
2018-02-08T09:10:49.950Z,101332
2018-02-08T09:13:19.789Z,101187
2018-02-08T09:15:49.972Z,101336
2018-02-08T09:18:19.809Z,101339
2018-02-08T09:20:49.695Z,101332
2018-02-08T09:23:19.517Z,101334
2018-02-08T09:25:49.390Z,101335
2018-02-08T09:28:19.209Z,101334
2018-02-08T09:30:49.083Z,101306
2018-02-08T09:33:19.356Z,101332
2018-02-08T09:35:49.209Z,101330
2018-02-08T09:38:19.100Z,101330
2018-02-08T09:40:48.951Z,101324
2018-02-08T09:43:18.906Z,101328
2018-02-08T09:45:48.748Z,101319
2018-02-08T09:48:18.626Z,101328
2018-02-08T09:50:48.484Z,101325
2018-02-08T09:53:18.395Z,101328
2018-02-08T09:55:48.272Z,101321
2018-02-08T09:58:18.125Z,101318
2018-02-08T10:00:48.397Z,101323
2018-02-08T10:03:18.258Z,101327
2018-02-08T10:05:48.443Z,101331
2018-02-08T10:08:18.309Z,101331
2018-02-08T10:10:48.186Z,101347
2018-02-08T10:13:18.092Z,101344
2018-02-08T10:15:47.936Z,101351
2018-02-08T10:18:17.897Z,101349
2018-02-08T10:20:47.801Z,101350
2018-02-08T10:23:17.658Z,101351
2018-02-08T10:25:47.499Z,101348
2018-02-08T10:28:17.377Z,101350
2018-02-08T10:30:47.271Z,101350
2018-02-08T10:33:17.093Z,101344
2018-02-08T10:35:47.124Z,101347
2018-02-08T10:38:16.959Z,101344
2018-02-08T10:40:46.896Z,101351
2018-02-08T10:43:16.731Z,101346
2018-02-08T10:45:47.005Z,101346
2018-02-08T10:48:16.861Z,101341
2018-02-08T10:50:47.494Z,101345
2018-02-08T10:53:17.337Z,101344
2018-02-08T10:55:47.138Z,101344
2018-02-08T10:58:16.984Z,101347
2018-02-08T11:00:46.796Z,101355
2018-02-08T11:03:16.716Z,101357
2018-02-08T11:05:46.581Z,101355
2018-02-08T11:08:16.530Z,101344
2018-02-08T11:10:46.378Z,101347
2018-02-08T11:13:16.265Z,101340
2018-02-08T11:15:46.084Z,101345
2018-02-08T11:18:15.941Z,101337
2018-02-08T11:20:45.853Z,101335
2018-02-08T11:23:15.706Z,101336
2018-02-08T11:25:45.564Z,101341
2018-02-08T11:28:15.440Z,101339
2018-02-08T11:30:45.312Z,101333
2018-02-08T11:33:15.163Z,101334
2018-02-08T11:35:45.004Z,101334
2018-02-08T11:38:15.425Z,101328
2018-02-08T11:40:45.369Z,101336
2018-02-08T11:43:15.267Z,101339
2018-02-08T11:45:45.109Z,101339
2018-02-08T11:48:15.019Z,101342
2018-02-08T11:50:44.901Z,101341
2018-02-08T11:53:14.791Z,101342
2018-02-08T11:55:44.656Z,101339
2018-02-08T11:58:15.324Z,101333
2018-02-08T12:00:45.335Z,101330
2018-02-08T12:03:16.186Z,100637
2018-02-08T12:05:46.150Z,101331
2018-02-08T12:08:16.031Z,101328
2018-02-08T12:10:45.923Z,101322
2018-02-08T12:13:15.956Z,101330
2018-02-08T12:15:45.896Z,101324
2018-02-08T12:18:15.753Z,101313
2018-02-08T12:20:45.601Z,101307
2018-02-08T12:23:15.485Z,101314
2018-02-08T12:25:45.344Z,101278
2018-02-08T12:28:15.192Z,101299
2018-02-08T12:30:45.040Z,101303
2018-02-08T12:33:14.892Z,101305
2018-02-08T12:35:44.777Z,101269
2018-02-08T12:38:14.601Z,101295
2018-02-08T12:40:44.469Z,101294
2018-02-08T12:43:14.334Z,101289
2018-02-08T12:45:44.189Z,101300
2018-02-08T12:48:14.036Z,101280
2018-02-08T12:50:43.914Z,101274
2018-02-08T12:53:13.725Z,101279
2018-02-08T12:55:43.571Z,101283
2018-02-08T12:58:13.662Z,101277
2018-02-08T13:00:43.502Z,101270
2018-02-08T13:03:13.486Z,101272
2018-02-08T13:05:43.387Z,101263
2018-02-08T13:08:13.291Z,101257
2018-02-08T13:10:43.291Z,101254
2018-02-08T13:13:13.124Z,101252
2018-02-08T13:15:43.058Z,101256
2018-02-08T13:18:12.961Z,101250
2018-02-08T13:20:43.211Z,101251
2018-02-08T13:23:13.074Z,101253
2018-02-08T13:25:43.276Z,101252
2018-02-08T13:28:13.121Z,101198
2018-02-08T13:30:43.418Z,101249
2018-02-08T13:33:13.279Z,101247
2018-02-08T13:35:43.557Z,101245
2018-02-08T13:38:13.415Z,101237
2018-02-08T13:40:44.149Z,101247
2018-02-08T13:43:14.020Z,101246
2018-02-08T13:45:44.308Z,101253
2018-02-08T13:48:16.642Z,101240
2018-02-08T13:51:01.379Z,101244
2018-02-08T13:53:36.949Z,101247
2018-02-08T13:56:10.619Z,101231
2018-02-08T13:58:47.880Z,101237
2018-02-08T14:01:23.380Z,101233
2018-02-08T14:03:53.268Z,101227
2018-02-08T14:06:23.188Z,101219
2018-02-08T14:08:53.250Z,101213
2018-02-08T14:11:23.119Z,101204
2018-02-08T14:13:52.971Z,101207
2018-02-08T14:16:22.860Z,101206
2018-02-08T14:18:52.694Z,101205
2018-02-08T14:21:22.620Z,101206
2018-02-08T14:23:52.457Z,101199
2018-02-08T14:26:22.323Z,100983
2018-02-08T14:28:52.153Z,101197
2018-02-08T14:31:22.086Z,101189
2018-02-08T14:33:51.937Z,101191
2018-02-08T14:36:21.796Z,101187
2018-02-08T14:38:51.707Z,101190
2018-02-08T14:41:21.676Z,101196
2018-02-08T14:43:51.553Z,101197
2018-02-08T14:46:21.417Z,101196
2018-02-08T14:48:51.286Z,101197
2018-02-08T14:51:21.145Z,101191
2018-02-08T14:53:51.004Z,101193
2018-02-08T14:56:20.867Z,101198
2018-02-08T14:58:50.748Z,101196
2018-02-08T15:01:20.627Z,101192
2018-02-08T15:03:50.740Z,101188
2018-02-08T15:06:20.667Z,101189
2018-02-08T15:08:50.627Z,101196
2018-02-08T15:11:20.518Z,101192
2018-02-08T15:13:50.428Z,101188
2018-02-08T15:16:20.331Z,101184
2018-02-08T15:18:50.176Z,101189
2018-02-08T15:21:20.075Z,101191
2018-02-08T15:23:49.964Z,101174
2018-02-08T15:26:19.822Z,101198
2018-02-08T15:28:49.791Z,101192
2018-02-08T15:31:19.650Z,101203
2018-02-08T15:33:49.533Z,101192
2018-02-08T15:36:19.379Z,101197
2018-02-08T15:38:49.733Z,101197
2018-02-08T15:41:19.647Z,101163
2018-02-08T15:43:49.567Z,101200
2018-02-08T15:46:19.845Z,101202
2018-02-08T15:48:49.731Z,101206
2018-02-08T15:51:19.675Z,101198
2018-02-08T15:53:49.642Z,101190
2018-02-08T15:56:19.621Z,101206
2018-02-08T15:58:49.511Z,101210
2018-02-08T16:01:19.378Z,101205
2018-02-08T16:03:49.342Z,101205
2018-02-08T16:06:19.201Z,101214
2018-02-08T16:08:49.176Z,101204
2018-02-08T16:11:19.061Z,101211
2018-02-08T16:13:49.054Z,101206
2018-02-08T16:16:18.963Z,101206
2018-02-08T16:18:48.824Z,101207
2018-02-08T16:21:18.753Z,101218
2018-02-08T16:23:48.668Z,101216
2018-02-08T16:26:18.694Z,101215
2018-02-08T16:28:48.575Z,101223
2018-02-08T16:31:18.443Z,101221
2018-02-08T16:33:48.294Z,101212
2018-02-08T16:36:18.167Z,101217
2018-02-08T16:38:48.007Z,101217
2018-02-08T16:41:17.858Z,101216
2018-02-08T16:43:47.760Z,101219
2018-02-08T16:46:17.681Z,101218
2018-02-08T16:48:47.694Z,101214
2018-02-08T16:51:17.577Z,101218
2018-02-08T16:53:47.547Z,101214
2018-02-08T16:56:17.470Z,101208
2018-02-08T16:58:47.446Z,101209
2018-02-08T17:01:23.219Z,101199
2018-02-08T17:03:53.456Z,101205
2018-02-08T17:06:24.768Z,101201
2018-02-08T17:15:05.270Z,101204
2018-02-08T17:20:31.119Z,101208
2018-02-08T17:23:01.546Z,101204
2018-02-08T17:25:32.614Z,101208
2018-02-08T17:28:02.505Z,101205
2018-02-08T17:30:32.369Z,101208
2018-02-08T17:33:02.285Z,101205
2018-02-08T17:35:32.722Z,101209
2018-02-08T17:38:02.613Z,101215
2018-02-08T17:40:32.487Z,101209
2018-02-08T17:43:02.371Z,101214
2018-02-08T17:45:32.232Z,101219
2018-02-08T17:48:02.331Z,101220
2018-02-08T17:50:32.205Z,101220
2018-02-08T17:53:02.107Z,101222
2018-02-08T17:55:32.123Z,101215
2018-02-08T17:58:02.012Z,101214
2018-02-08T18:00:31.942Z,101216
2018-02-08T18:03:01.880Z,101220
2018-02-08T18:05:31.746Z,101219
2018-02-08T18:08:01.664Z,101216
2018-02-08T18:10:31.614Z,101217
2018-02-08T18:13:01.513Z,101218
2018-02-08T18:15:31.534Z,101221
2018-02-08T18:18:01.647Z,101218
2018-02-08T18:20:31.642Z,101215
2018-02-08T18:23:01.587Z,101203
2018-02-08T18:25:31.518Z,101214
2018-02-08T18:28:01.533Z,101217
2018-02-08T18:30:32.201Z,101213
2018-02-08T18:33:02.257Z,101220
2018-02-08T18:35:32.544Z,101218
2018-02-08T18:38:02.417Z,101221
2018-02-08T18:40:32.359Z,101222
2018-02-08T18:43:02.270Z,101224
2018-02-08T18:45:32.282Z,101218
2018-02-08T18:48:02.289Z,101222
2018-02-08T18:50:32.266Z,101229
2018-02-08T18:53:02.205Z,101215
2018-02-08T18:55:32.384Z,101213
2018-02-08T18:58:02.269Z,101213
2018-02-08T19:00:32.260Z,101212
2018-02-08T19:03:02.218Z,101208
2018-02-08T19:05:32.130Z,101208
2018-02-08T19:08:02.274Z,101216
2018-02-08T19:10:32.238Z,101210
2018-02-08T19:13:02.566Z,101206
2018-02-08T19:15:32.432Z,101208
2018-02-08T19:18:02.321Z,101203
2018-02-08T19:20:33.041Z,101205
2018-02-08T19:23:03.255Z,101209
2018-02-08T19:25:33.145Z,101206
2018-02-08T19:28:03.149Z,101206
2018-02-08T19:30:33.046Z,101218
2018-02-08T19:33:02.961Z,101216
2018-02-08T19:35:34.557Z,101211
2018-02-08T19:38:05.475Z,101199
2018-02-08T19:40:35.604Z,101209
2018-02-08T19:43:05.557Z,101198
2018-02-08T19:45:35.594Z,101209
2018-02-08T19:48:05.593Z,101209
2018-02-08T19:50:35.542Z,101207
2018-02-08T19:53:05.945Z,101187
2018-02-08T19:55:35.953Z,101192
2018-02-08T19:58:05.876Z,101201
2018-02-08T20:00:35.846Z,101193
2018-02-08T20:03:05.789Z,101200
2018-02-08T20:05:35.776Z,101196
2018-02-08T20:08:05.786Z,101183
2018-02-08T20:10:35.818Z,101185
2018-02-08T20:13:05.713Z,101184
2018-02-08T20:15:35.693Z,101185
2018-02-08T20:18:05.623Z,101187
2018-02-08T20:20:35.502Z,101186
2018-02-08T20:23:05.435Z,101178
2018-02-08T20:25:46.207Z,101177
2018-02-08T20:28:16.178Z,101183
2018-02-08T20:30:52.256Z,101182
2018-02-08T20:33:22.104Z,101184
2018-02-08T20:35:52.019Z,101181
2018-02-08T20:38:21.898Z,101178
2018-02-08T20:40:51.920Z,101186
2018-02-08T20:43:27.527Z,101183
2018-02-08T20:45:57.416Z,101167
2018-02-08T20:48:27.342Z,101184
2018-02-08T20:50:57.364Z,101171
2018-02-08T20:53:27.240Z,101177
2018-02-08T20:55:57.160Z,101165
2018-02-08T20:58:27.165Z,101169
2018-02-08T21:00:57.081Z,101173
2018-02-08T21:03:27.935Z,101169
2018-02-08T21:05:57.934Z,101161
2018-02-08T21:08:28.145Z,101165
2018-02-08T21:10:58.066Z,101164
2018-02-08T21:13:27.906Z,101166
2018-02-08T21:15:57.814Z,101163
2018-02-08T21:18:27.790Z,101164
2018-02-08T21:20:57.685Z,101158
2018-02-08T21:23:27.598Z,101156
2018-02-08T21:25:57.617Z,101166
2018-02-08T21:28:29.091Z,101164
2018-02-08T21:30:58.978Z,101157
2018-02-08T21:33:29.075Z,101159
2018-02-08T21:35:58.963Z,101151
2018-02-08T21:38:28.833Z,101155
2018-02-08T21:40:58.890Z,101148
2018-02-08T21:43:28.734Z,101156
2018-02-08T21:45:58.788Z,101149
2018-02-08T21:48:28.711Z,101153
2018-02-08T21:50:58.594Z,101157
2018-02-08T21:53:28.460Z,101149
2018-02-08T21:55:58.772Z,101151
2018-02-08T21:58:28.701Z,101139
2018-02-08T22:00:58.683Z,101134
2018-02-08T22:03:28.611Z,101138
2018-02-08T22:05:58.513Z,101138
2018-02-08T22:08:28.502Z,101127
2018-02-08T22:10:58.456Z,101137
2018-02-08T22:13:28.326Z,101130
2018-02-08T22:15:58.363Z,101132
2018-02-08T22:18:28.259Z,101135
2018-02-08T22:20:58.125Z,101135
2018-02-08T22:23:28.072Z,101135
2018-02-08T22:25:58.149Z,101130
2018-02-08T22:28:28.121Z,101124
2018-02-08T22:30:57.988Z,101125
2018-02-08T22:33:27.870Z,101126
2018-02-08T22:35:57.725Z,101123
2018-02-08T22:38:27.903Z,101128
2018-02-08T22:40:57.742Z,101133
2018-02-08T22:43:27.974Z,101128
2018-02-08T22:45:57.874Z,101123
2018-02-08T22:48:27.866Z,101122
2018-02-08T22:50:57.863Z,101118
2018-02-08T22:53:27.777Z,101119
2018-02-08T22:55:57.644Z,101123
2018-02-08T22:58:27.550Z,101114
2018-02-08T23:00:57.477Z,101107
2018-02-08T23:03:27.422Z,101103
2018-02-08T23:05:57.992Z,101110
2018-02-08T23:08:27.935Z,101107
2018-02-08T23:10:57.858Z,101107
2018-02-08T23:13:28.263Z,101105
2018-02-08T23:15:58.498Z,101107
2018-02-08T23:18:28.455Z,101102
2018-02-08T23:20:58.447Z,101102
2018-02-08T23:23:28.394Z,101118
2018-02-08T23:25:58.265Z,101114
2018-02-08T23:28:28.140Z,101111
2018-02-08T23:30:57.994Z,101112
2018-02-08T23:33:27.884Z,101103
2018-02-08T23:35:57.800Z,101096
2018-02-08T23:38:27.661Z,101103
2018-02-08T23:40:57.567Z,101090
2018-02-08T23:43:27.611Z,101088
2018-02-08T23:45:57.486Z,101086
2018-02-08T23:48:27.468Z,101091
2018-02-08T23:50:58.136Z,101090
2018-02-08T23:53:28.046Z,101083
2018-02-08T23:55:57.985Z,101086
2018-02-08T23:58:27.816Z,101087
